Time;durP1;ratioP1;P1;durP2;ratioP2;P2;SDS_P1;SDS_P2;PMS_P1;PMS_P2;Temp;Humidity;BMP_temperature;BMP_pressure;BME280_temperature;BME280_humidity;BME280_pressure;Samples;Min_cycle;Max_cycle;Signal;HPM_P1;HPM_P2
2022/09/12 00:00:50;;;;;;;0.80;0.30;;;13.90;99.90;;;;;;4996514;28;20038;-92
2022/09/12 00:03:15;;;;;;;1.10;0.70;;;13.90;99.90;;;;;;4996087;28;20132;-92
2022/09/12 00:05:43;;;;;;;0.30;0.30;;;13.90;99.90;;;;;;4996379;28;20149;-92
2022/09/12 00:08:09;;;;;;;0.60;0.60;;;13.90;99.90;;;;;;4995720;28;20052;-92
2022/09/12 00:10:42;;;;;;;;;;;13.80;99.90;;;;;;4996276;28;20053;-92
2022/09/12 00:13:09;;;;;;;0.50;0.50;;;13.80;99.90;;;;;;4995870;28;19944;-92
2022/09/12 00:15:40;;;;;;;0.60;0.60;;;13.80;99.90;;;;;;4995932;28;20512;-92
2022/09/12 00:18:08;;;;;;;0.82;0.68;;;13.80;99.90;;;;;;4979865;28;20045;-92
2022/09/12 00:20:34;;;;;;;1.10;0.70;;;13.70;99.90;;;;;;4996124;28;20049;-92
2022/09/12 00:22:59;;;;;;;0.60;0.47;;;13.70;99.90;;;;;;4995721;28;20037;-93
2022/09/12 00:25:25;;;;;;;0.77;0.63;;;13.70;99.90;;;;;;4947272;28;20577;-92
2022/09/12 00:27:51;;;;;;;0.60;0.60;;;13.70;99.90;;;;;;4963681;28;20042;-92
2022/09/12 00:30:17;;;;;;;0.77;0.50;;;13.60;99.90;;;;;;4979082;28;20096;-92
2022/09/12 00:32:43;;;;;;;0.57;0.57;;;13.60;99.90;;;;;;4963798;28;20057;-92
2022/09/12 00:35:09;;;;;;;0.50;0.30;;;13.60;99.90;;;;;;4995924;28;20320;-92
2022/09/12 00:37:34;;;;;;;0.50;0.50;;;13.60;99.90;;;;;;4979580;28;20116;-92
2022/09/12 00:40:01;;;;;;;0.60;0.50;;;13.50;99.90;;;;;;4979824;28;20048;-92
2022/09/12 00:42:26;;;;;;;0.45;0.45;;;13.50;99.90;;;;;;4995196;28;20057;-92
2022/09/12 00:44:52;;;;;;;0.43;0.30;;;13.60;99.90;;;;;;4980018;28;20542;-92
2022/09/12 00:47:26;;;;;;;0.43;0.40;;;13.50;99.90;;;;;;4979199;28;20051;-92
2022/09/12 00:50:10;;;;;;;0.40;0.40;;;13.50;99.90;;;;;;4995751;28;20078;-92
2022/09/12 00:52:51;;;;;;;0.40;0.40;;;13.50;99.90;;;;;;4979315;28;20141;-93
2022/09/12 00:55:39;;;;;;;0.50;0.45;;;13.50;99.90;;;;;;4979184;28;20049;-93
2022/09/12 00:58:13;;;;;;;0.55;0.50;;;13.50;99.90;;;;;;4979407;28;20049;-93
2022/09/12 01:00:39;;;;;;;0.70;0.60;;;13.50;99.90;;;;;;4979116;28;20085;-92
2022/09/12 01:03:13;;;;;;;0.80;0.30;;;13.40;99.90;;;;;;4979684;28;20133;-92
2022/09/12 01:05:45;;;;;;;0.50;0.50;;;13.40;99.90;;;;;;4995222;28;20057;-92
2022/09/12 01:08:11;;;;;;;0.82;0.82;;;13.40;99.90;;;;;;4979488;28;20057;-92
2022/09/12 01:10:39;;;;;;;0.45;0.40;;;13.40;99.90;;;;;;4978824;28;20042;-93
2022/09/12 01:13:07;;;;;;;1.85;0.68;;;13.40;99.90;;;;;;4979388;28;20551;-92
2022/09/12 01:15:33;;;;;;;0.43;0.43;;;13.30;99.90;;;;;;4995196;28;20050;-92
2022/09/12 01:17:59;;;;;;;;;;;13.30;99.90;;;;;;4979792;28;20435;-92
2022/09/12 01:20:50;;;;;;;0.60;0.40;;;13.30;99.90;;;;;;4978782;28;20012;-92
2022/09/12 01:23:51;;;;;;;0.50;0.40;;;13.30;99.90;;;;;;4978964;28;20050;-92
2022/09/12 01:26:38;;;;;;;0.65;0.60;;;13.30;99.90;;;;;;4978986;28;20065;-93
2022/09/12 01:29:34;;;;;;;0.45;0.45;;;13.20;99.90;;;;;;4979018;28;20038;-92
2022/09/12 01:32:34;;;;;;;1.00;0.60;;;13.20;99.90;;;;;;4995225;28;20046;-93
2022/09/12 01:35:33;;;;;;;1.10;0.70;;;13.20;99.90;;;;;;4997779;28;20057;-93
2022/09/12 01:38:10;;;;;;;0.63;0.50;;;13.10;99.90;;;;;;4979954;28;20064;-93
2022/09/12 01:40:44;;;;;;;0.40;0.40;;;13.10;99.90;;;;;;4998701;28;20152;-93
2022/09/12 01:43:23;;;;;;;0.85;0.43;;;13.10;99.90;;;;;;4998513;28;20062;-92
2022/09/12 01:45:59;;;;;;;1.27;0.80;;;13.10;99.90;;;;;;4998892;28;20049;-92
2022/09/12 01:48:51;;;;;;;0.75;0.45;;;13.10;99.90;;;;;;4998617;28;20085;-93
2022/09/12 01:51:37;;;;;;;1.05;0.50;;;13.10;99.90;;;;;;4982680;28;20050;-93
2022/09/12 01:54:12;;;;;;;0.40;0.40;;;13.10;99.90;;;;;;4998912;28;20105;-93
2022/09/12 01:56:41;;;;;;;0.80;0.70;;;13.10;99.90;;;;;;5015700;28;20092;-92
2022/09/12 01:59:28;;;;;;;1.40;0.90;;;13.10;99.90;;;;;;4982004;28;20125;-93
2022/09/12 02:02:01;;;;;;;0.70;0.68;;;13.00;99.90;;;;;;4982147;28;20042;-94
2022/09/12 02:04:33;;;;;;;0.75;0.55;;;13.00;99.90;;;;;;4998178;28;20042;-92
2022/09/12 02:07:07;;;;;;;0.88;0.60;;;13.00;99.90;;;;;;4998509;28;20049;-92
2022/09/12 02:09:45;;;;;;;0.52;0.50;;;13.00;99.90;;;;;;4981711;28;20041;-93
2022/09/12 02:12:13;;;;;;;0.73;0.60;;;12.90;99.90;;;;;;4982031;28;20057;-92
2022/09/12 02:14:48;;;;;;;1.15;0.63;;;12.90;99.90;;;;;;4997927;28;20057;-93
2022/09/12 02:17:22;;;;;;;0.60;0.60;;;12.90;99.90;;;;;;4997914;28;20057;-93
2022/09/12 02:20:08;;;;;;;1.05;0.60;;;12.90;99.90;;;;;;4998251;28;20057;-92
2022/09/12 02:22:37;;;;;;;1.03;0.60;;;12.90;99.90;;;;;;4997925;28;20052;-92
2022/09/12 02:25:06;;;;;;;0.80;0.80;;;12.90;99.90;;;;;;4998279;28;20057;-92
2022/09/12 02:27:37;;;;;;;0.65;0.50;;;12.90;99.90;;;;;;4981589;28;20129;-92
2022/09/12 02:30:07;;;;;;;1.23;0.93;;;12.90;99.90;;;;;;5015431;28;20060;-92
2022/09/12 02:32:44;;;;;;;1.80;0.88;;;12.90;99.90;;;;;;4981480;28;20037;-92
2022/09/12 02:35:21;;;;;;;1.10;0.80;;;12.80;99.90;;;;;;4981886;28;20054;-93
2022/09/12 02:38:02;;;;;;;0.68;0.68;;;12.90;99.90;;;;;;4997694;28;20053;-91
2022/09/12 02:40:29;;;;;;;1.13;0.57;;;12.80;99.90;;;;;;4997319;28;20049;-92
2022/09/12 02:42:56;;;;;;;1.85;1.00;;;12.90;99.90;;;;;;4981396;28;20111;-92
2022/09/12 02:45:22;;;;;;;1.38;0.82;;;12.90;99.90;;;;;;4965328;28;20054;-92
2022/09/12 02:47:56;;;;;;;1.75;1.08;;;12.90;99.90;;;;;;4965131;28;20136;-93
2022/09/12 02:50:22;;;;;;;1.75;0.88;;;12.90;99.90;;;;;;4997662;28;20038;-92
2022/09/12 02:52:49;;;;;;;2.60;1.13;;;13.00;99.90;;;;;;5014604;28;20488;-92
2022/09/12 02:55:16;;;;;;;2.30;1.10;;;13.00;99.90;;;;;;4981483;28;20404;-93
2022/09/12 02:57:41;;;;;;;2.33;1.15;;;13.00;99.90;;;;;;4997202;28;20072;-92
2022/09/12 03:00:08;;;;;;;2.20;0.98;;;13.00;99.90;;;;;;4965421;28;20037;-93
2022/09/12 03:02:50;;;;;;;1.65;1.13;;;13.00;99.90;;;;;;5014489;28;20404;-92
2022/09/12 03:05:36;;;;;;;1.85;1.42;;;13.00;99.90;;;;;;4981502;28;20089;-92
2022/09/12 03:08:20;;;;;;;2.97;1.02;;;12.90;99.90;;;;;;4981377;28;20058;-93
2022/09/12 03:11:05;;;;;;;0.93;0.50;;;12.90;99.90;;;;;;4996698;28;20054;-92
2022/09/12 03:13:30;;;;;;;1.48;0.85;;;12.80;99.90;;;;;;4996766;28;20520;-93
2022/09/12 03:16:15;;;;;;;1.47;0.93;;;12.80;99.90;;;;;;4981175;28;20088;-92
2022/09/12 03:18:49;;;;;;;2.25;0.98;;;12.80;99.90;;;;;;4980631;28;20045;-92
2022/09/12 03:21:21;;;;;;;1.30;0.90;;;12.70;99.90;;;;;;4997399;28;20135;-92
2022/09/12 03:23:55;;;;;;;1.75;1.15;;;12.70;99.90;;;;;;4980465;28;20089;-92
2022/09/12 03:26:28;;;;;;;1.88;1.45;;;12.60;99.90;;;;;;4980920;28;20147;-93
2022/09/12 03:28:55;;;;;;;1.40;0.60;;;12.60;99.90;;;;;;4996589;28;20045;-93
2022/09/12 03:31:21;;;;;;;1.40;0.70;;;12.60;99.90;;;;;;4980877;28;20510;-92
2022/09/12 03:33:47;;;;;;;0.60;0.60;;;12.60;99.90;;;;;;4964301;28;20136;-92
2022/09/12 03:36:25;;;;;;;1.57;0.77;;;12.60;99.90;;;;;;4964614;28;20045;-92
2022/09/12 03:38:51;;;;;;;2.13;0.98;;;12.60;99.90;;;;;;4996519;28;20143;-92
2022/09/12 03:41:17;;;;;;;2.65;1.27;;;12.50;99.90;;;;;;4980028;28;20042;-92
2022/09/12 03:43:43;;;;;;;1.60;1.10;;;12.50;99.90;;;;;;4979527;28;20459;-92
2022/09/12 03:46:09;;;;;;;0.80;0.75;;;12.50;99.90;;;;;;4980606;28;20069;-93
2022/09/12 03:48:35;;;;;;;1.00;0.97;;;12.50;99.90;;;;;;4980249;28;20486;-92
2022/09/12 03:51:04;;;;;;;1.60;1.00;;;12.50;99.90;;;;;;4964543;28;20049;-92
2022/09/12 03:53:30;;;;;;;2.15;1.23;;;12.40;99.90;;;;;;4980682;28;20377;-93
2022/09/12 03:55:56;;;;;;;1.77;1.00;;;12.40;99.90;;;;;;4963901;28;20069;-93
2022/09/12 03:58:29;;;;;;;2.53;0.70;;;12.40;99.90;;;;;;4995960;28;20054;-93
2022/09/12 04:00:54;;;;;;;2.80;1.00;;;12.40;99.90;;;;;;4996088;28;20053;-93
2022/09/12 04:03:20;;;;;;;3.07;0.93;;;12.40;99.90;;;;;;4980245;28;20400;-91
2022/09/12 04:05:46;;;;;;;0.80;0.57;;;12.40;99.90;;;;;;4963728;28;20038;-92
2022/09/12 04:08:12;;;;;;;2.58;1.00;;;12.40;99.90;;;;;;4947933;28;20050;-92
2022/09/12 04:10:38;;;;;;;1.08;0.95;;;12.30;99.90;;;;;;4963389;28;20388;-93
2022/09/12 04:13:03;;;;;;;2.37;1.40;;;12.40;99.90;;;;;;4980465;28;20050;-93
2022/09/12 04:15:29;;;;;;;2.53;1.13;;;12.30;99.90;;;;;;4980129;28;20038;-92
2022/09/12 04:17:55;;;;;;;0.90;0.60;;;12.40;99.90;;;;;;4979741;28;20403;-92
2022/09/12 04:20:20;;;;;;;0.90;0.80;;;12.40;99.90;;;;;;4996148;28;20076;-93
2022/09/12 04:22:46;;;;;;;1.03;0.87;;;12.30;99.90;;;;;;4995553;28;20085;-92
2022/09/12 04:25:12;;;;;;;1.37;0.80;;;12.30;99.90;;;;;;4963480;28;20103;-93
2022/09/12 04:27:38;;;;;;;1.60;0.88;;;12.30;99.90;;;;;;4995663;28;20061;-93
2022/09/12 04:30:04;;;;;;;1.35;0.70;;;12.30;99.90;;;;;;4979679;28;20423;-92
2022/09/12 04:32:31;;;;;;;2.88;1.52;;;12.30;99.90;;;;;;4979865;28;20092;-92
2022/09/12 04:34:56;;;;;;;3.13;1.58;;;12.30;99.90;;;;;;4995549;28;20136;-93
2022/09/12 04:37:23;;;;;;;1.85;1.35;;;12.20;99.90;;;;;;4963868;28;20076;-92
2022/09/12 04:39:50;;;;;;;2.67;1.23;;;12.20;99.90;;;;;;4963158;28;20042;-93
2022/09/12 04:42:16;;;;;;;2.53;1.08;;;12.20;99.90;;;;;;4963510;28;20061;-93
2022/09/12 04:44:42;;;;;;;1.85;1.23;;;12.30;99.90;;;;;;4963461;28;20116;-92
2022/09/12 04:47:08;;;;;;;1.73;0.82;;;12.20;99.90;;;;;;4963635;28;20051;-92
2022/09/12 04:49:34;;;;;;;1.50;1.30;;;12.30;99.90;;;;;;4979664;28;20042;-92
2022/09/12 04:51:59;;;;;;;1.90;0.87;;;12.30;99.90;;;;;;4979257;28;20072;-93
2022/09/12 04:54:26;;;;;;;1.90;0.95;;;12.20;99.90;;;;;;4979516;28;20077;-93
2022/09/12 04:56:53;;;;;;;1.30;0.93;;;12.20;99.90;;;;;;4979069;28;20050;-93
2022/09/12 04:59:20;;;;;;;0.85;0.77;;;12.20;99.90;;;;;;4995559;28;20439;-93
2022/09/12 05:01:47;;;;;;;1.98;0.90;;;12.30;99.90;;;;;;4995251;28;20058;-92
2022/09/12 05:04:12;;;;;;;;;;;12.30;99.90;;;;;;4996018;28;20049;-92
2022/09/12 05:06:40;;;;;;;1.83;1.00;;;12.30;99.90;;;;;;4979435;28;19922;-91
2022/09/12 05:09:07;;;;;;;2.55;1.05;;;12.30;99.90;;;;;;4965783;28;20202;-91
2022/09/12 05:11:36;;;;;;;1.70;0.93;;;12.40;99.90;;;;;;4983438;28;20428;-91
2022/09/12 05:14:02;;;;;;;1.58;1.33;;;12.40;99.90;;;;;;4982972;28;20519;-91
2022/09/12 05:16:30;;;;;;;2.60;1.27;;;12.50;99.90;;;;;;4999557;28;20089;-91
2022/09/12 05:18:57;;;;;;;1.80;1.33;;;12.60;99.90;;;;;;4982834;28;20128;-91
2022/09/12 05:21:23;;;;;;;2.03;0.80;;;12.60;99.90;;;;;;4999364;28;20093;-90
2022/09/12 05:23:58;;;;;;;1.80;0.80;;;12.70;99.90;;;;;;4998494;28;20519;-91
2022/09/12 05:26:24;;;;;;;2.85;0.82;;;12.80;99.90;;;;;;4983475;28;20056;-91
2022/09/12 05:28:52;;;;;;;1.80;0.77;;;12.90;99.90;;;;;;4982528;28;20054;-91
2022/09/12 05:31:21;;;;;;;2.20;1.25;;;13.00;99.90;;;;;;4999176;28;20468;-91
2022/09/12 05:33:49;;;;;;;4.25;1.92;;;13.00;99.90;;;;;;4998574;28;20558;-90
2022/09/12 05:36:17;;;;;;;3.25;1.40;;;13.10;99.90;;;;;;4999005;28;20057;-90
2022/09/12 05:38:44;;;;;;;2.90;1.13;;;13.20;99.90;;;;;;4999059;28;20042;-91
2022/09/12 05:41:13;;;;;;;1.80;1.23;;;13.30;99.90;;;;;;4986923;28;20108;-91
2022/09/12 05:43:41;;;;;;;3.67;0.82;;;13.30;99.90;;;;;;4989054;28;20136;-90
2022/09/12 05:46:18;;;;;;;1.52;1.08;;;13.30;99.90;;;;;;4998629;28;20056;-90
2022/09/12 05:48:45;;;;;;;3.30;0.90;;;13.40;99.90;;;;;;5006118;28;20076;-91
2022/09/12 05:51:19;;;;;;;3.80;1.23;;;13.50;99.90;;;;;;4982702;28;20128;-91
2022/09/12 05:53:47;;;;;;;2.88;1.48;;;13.50;99.90;;;;;;5016365;28;20056;-91
2022/09/12 05:56:15;;;;;;;3.15;1.40;;;13.60;99.90;;;;;;4966142;28;20107;-90
2022/09/12 05:58:43;;;;;;;4.70;1.05;;;13.60;99.90;;;;;;4998504;28;20087;-91
2022/09/12 06:01:15;;;;;;;3.65;1.30;;;13.60;99.90;;;;;;4982196;28;20081;-91
2022/09/12 06:03:41;;;;;;;2.75;1.80;;;13.70;99.90;;;;;;4966284;28;20053;-91
2022/09/12 06:06:08;;;;;;;2.30;1.17;;;13.70;99.90;;;;;;5015470;28;20545;-91
2022/09/12 06:08:37;;;;;;;2.60;1.05;;;13.70;99.90;;;;;;4982537;28;20095;-91
2022/09/12 06:11:04;;;;;;;2.83;1.15;;;13.80;99.90;;;;;;4982204;28;20519;-91
2022/09/12 06:13:32;;;;;;;2.33;1.35;;;13.80;99.90;;;;;;5022178;28;20515;-91
2022/09/12 06:16:16;;;;;;;1.30;0.73;;;13.80;99.90;;;;;;4998267;28;20103;-91
2022/09/12 06:18:50;;;;;;;3.67;1.20;;;13.80;99.90;;;;;;4998570;28;20046;-91
2022/09/12 06:21:17;;;;;;;1.20;1.00;;;13.90;99.90;;;;;;4997487;28;20103;-90
2022/09/12 06:23:45;;;;;;;2.63;1.30;;;13.90;99.90;;;;;;4998285;28;20038;-91
2022/09/12 06:26:11;;;;;;;1.60;1.10;;;13.90;99.90;;;;;;4982095;28;20054;-91
2022/09/12 06:28:40;;;;;;;1.48;1.25;;;14.00;99.90;;;;;;4981999;28;20065;-91
2022/09/12 06:31:15;;;;;;;2.25;1.10;;;13.90;99.90;;;;;;4981495;28;20092;-88
2022/09/12 06:33:44;;;;;;;4.03;1.45;;;14.00;99.90;;;;;;4998113;28;20042;-89
2022/09/12 06:36:18;;;;;;;4.22;1.52;;;14.10;99.90;;;;;;4997519;28;20046;-89
2022/09/12 06:38:50;;;;;;;1.60;0.80;;;13.90;99.90;;;;;;4997786;28;20462;-89
2022/09/12 06:41:16;;;;;;;2.75;1.23;;;14.10;99.90;;;;;;4982311;28;20128;-89
2022/09/12 06:43:42;;;;;;;3.10;0.95;;;14.20;99.90;;;;;;4997471;28;20064;-89
2022/09/12 06:46:09;;;;;;;3.45;1.02;;;14.20;99.90;;;;;;4997484;28;20045;-89
2022/09/12 06:48:35;;;;;;;2.70;1.13;;;14.20;99.90;;;;;;4981708;28;20050;-89
2022/09/12 06:51:08;;;;;;;1.73;0.90;;;14.20;99.90;;;;;;4980878;28;20101;-89
2022/09/12 06:53:37;;;;;;;2.38;1.25;;;14.30;99.90;;;;;;4998029;28;20049;-89
2022/09/12 06:56:10;;;;;;;3.50;1.38;;;14.30;99.90;;;;;;5014556;28;20045;-90
2022/09/12 06:58:36;;;;;;;2.03;0.77;;;14.30;99.90;;;;;;4981646;28;20054;-89
2022/09/12 07:01:21;;;;;;;5.30;1.45;;;14.30;99.90;;;;;;4981159;28;20046;-90
2022/09/12 07:03:49;;;;;;;1.55;1.02;;;14.40;99.90;;;;;;4981261;28;20450;-89
2022/09/12 07:06:17;;;;;;;4.38;1.15;;;14.40;99.90;;;;;;4997057;28;20042;-89
2022/09/12 07:08:43;;;;;;;4.45;1.67;;;14.40;99.90;;;;;;4981150;28;20410;-89
2022/09/12 07:11:14;;;;;;;2.33;1.35;;;14.50;99.90;;;;;;4997105;28;20141;-89
2022/09/12 07:13:41;;;;;;;2.63;0.98;;;14.50;99.90;;;;;;4981320;28;20404;-89
2022/09/12 07:16:08;;;;;;;4.53;1.13;;;14.50;99.90;;;;;;4980274;28;20053;-89
2022/09/12 07:18:36;;;;;;;2.80;1.40;;;14.50;99.90;;;;;;4965567;28;20111;-89
2022/09/12 07:21:04;;;;;;;3.85;1.60;;;14.50;99.90;;;;;;4980897;28;20050;-89
2022/09/12 07:23:30;;;;;;;1.58;1.00;;;14.60;99.90;;;;;;4997115;28;20056;-89
2022/09/12 07:25:58;;;;;;;2.92;1.00;;;14.50;99.90;;;;;;4980873;28;20048;-89
2022/09/12 07:28:26;;;;;;;1.80;0.73;;;14.60;99.90;;;;;;4996755;28;20437;-89
2022/09/12 07:30:52;;;;;;;3.65;1.05;;;14.60;99.90;;;;;;4980219;28;20135;-89
2022/09/12 07:33:23;;;;;;;2.72;1.23;;;14.60;99.90;;;;;;4979823;28;20141;-89
2022/09/12 07:35:49;;;;;;;1.88;1.08;;;14.70;99.90;;;;;;4996604;28;20092;-89
2022/09/12 07:38:16;;;;;;;3.57;1.10;;;14.70;99.90;;;;;;4980281;28;20042;-89
2022/09/12 07:40:42;;;;;;;3.72;1.02;;;14.70;99.90;;;;;;4980734;28;20687;-89
2022/09/12 07:43:09;;;;;;;2.17;0.88;;;14.80;99.90;;;;;;4979800;28;20058;-89
2022/09/12 07:45:34;;;;;;;2.40;1.00;;;14.90;99.90;;;;;;4996722;28;20389;-89
2022/09/12 07:48:01;;;;;;;3.30;0.98;;;14.90;99.90;;;;;;4996736;28;20042;-88
2022/09/12 07:50:26;;;;;;;1.67;0.85;;;15.00;99.90;;;;;;4979921;28;20404;-89
2022/09/12 07:52:55;;;;;;;4.60;1.30;;;15.10;99.90;;;;;;4980129;28;20042;-89
2022/09/12 07:55:21;;;;;;;1.95;1.40;;;15.20;99.90;;;;;;4979994;28;20137;-88
2022/09/12 07:57:51;;;;;;;2.00;1.05;;;15.30;99.90;;;;;;4980336;28;20053;-89
2022/09/12 08:00:17;;;;;;;3.03;1.17;;;15.40;99.90;;;;;;4963924;28;20107;-88
2022/09/12 08:02:43;;;;;;;;;;;15.40;99.90;;;;;;4980700;28;20523;-89
2022/09/12 08:05:09;;;;;;;2.95;1.40;;;15.40;99.90;;;;;;4996328;28;19972;-88
2022/09/12 08:07:35;;;;;;;2.25;1.52;;;15.40;99.90;;;;;;4963642;28;20104;-89
2022/09/12 08:10:01;;;;;;;1.93;1.10;;;15.50;99.90;;;;;;4979959;28;20046;-89
2022/09/12 08:12:27;;;;;;;2.78;1.25;;;15.40;99.90;;;;;;4963643;28;20296;-89
2022/09/12 08:14:53;;;;;;;2.67;1.13;;;15.40;99.90;;;;;;4981230;28;20038;-89
2022/09/12 08:17:19;;;;;;;2.22;1.33;;;15.50;99.90;;;;;;4997675;28;20477;-89
2022/09/12 08:19:45;;;;;;;2.40;1.20;;;15.50;99.90;;;;;;4995956;28;20045;-89
2022/09/12 08:22:11;;;;;;;2.90;0.98;;;15.50;99.90;;;;;;4965564;28;20042;-89
2022/09/12 08:24:38;;;;;;;3.70;0.75;;;15.60;99.90;;;;;;4979568;28;20050;-89
2022/09/12 08:27:04;;;;;;;2.10;0.98;;;15.70;99.90;;;;;;4980080;28;20049;-90
2022/09/12 08:29:30;;;;;;;2.97;1.05;;;15.70;99.90;;;;;;4963384;28;20046;-89
2022/09/12 08:31:56;;;;;;;2.90;1.67;;;15.80;99.90;;;;;;4979988;28;20523;-90
2022/09/12 08:34:23;;;;;;;2.45;1.05;;;15.80;99.90;;;;;;4963062;28;20042;-89
2022/09/12 08:36:49;;;;;;;3.15;1.67;;;15.90;99.90;;;;;;4980038;28;20049;-89
2022/09/12 08:39:16;;;;;;;2.35;1.10;;;15.90;99.90;;;;;;4995760;28;20046;-89
2022/09/12 08:41:46;;;;;;;1.58;1.23;;;16.00;99.90;;;;;;4963524;28;20045;-89
2022/09/12 08:44:50;;;;;;;1.33;0.70;;;16.10;99.90;;;;;;4995302;28;20046;-89
2022/09/12 08:47:27;;;;;;;3.60;1.42;;;16.10;99.90;;;;;;4981677;28;20050;-89
2022/09/12 08:50:08;;;;;;;1.45;1.00;;;16.20;99.90;;;;;;4979677;28;20049;-89
2022/09/12 08:52:55;;;;;;;1.45;0.60;;;16.20;99.90;;;;;;4979244;28;20046;-89
2022/09/12 08:55:43;;;;;;;0.85;0.80;;;16.20;99.90;;;;;;4979180;28;20081;-90
2022/09/12 08:58:23;;;;;;;2.35;1.10;;;16.30;99.90;;;;;;4995611;28;20057;-89
2022/09/12 09:01:24;;;;;;;1.27;0.70;;;16.40;99.90;;;;;;4979296;28;20569;-89
2022/09/12 09:04:19;;;;;;;1.70;1.23;;;16.40;99.90;;;;;;4979435;28;20052;-89
2022/09/12 09:07:13;;;;;;;1.95;1.05;;;16.50;99.90;;;;;;4978731;28;20061;-90
2022/09/12 09:09:47;;;;;;;1.35;0.60;;;16.70;99.90;;;;;;4978828;28;20107;-90
2022/09/12 09:12:19;;;;;;;3.65;1.67;;;16.80;99.90;;;;;;4995528;28;20046;-89
2022/09/12 09:14:50;;;;;;;2.20;1.30;;;16.90;99.90;;;;;;4994994;28;20042;-89
2022/09/12 09:17:19;;;;;;;2.17;1.10;;;17.10;99.90;;;;;;4995446;28;20046;-90
2022/09/12 09:19:51;;;;;;;3.72;1.17;;;17.10;99.90;;;;;;4995060;28;20498;-89
2022/09/12 09:22:40;;;;;;;2.40;1.20;;;17.20;99.90;;;;;;4979575;28;20403;-90
2022/09/12 09:25:14;;;;;;;3.28;1.45;;;17.40;99.90;;;;;;4995554;28;20054;-89
2022/09/12 09:27:50;;;;;;;2.40;1.15;;;17.50;99.90;;;;;;4995059;28;20053;-90
2022/09/12 09:30:18;;;;;;;5.75;1.70;;;17.60;99.90;;;;;;4995382;28;20121;-90
2022/09/12 09:32:49;;;;;;;2.78;1.58;;;17.60;99.90;;;;;;4978902;28;20400;-90
2022/09/12 09:35:26;;;;;;;1.45;1.02;;;17.70;99.90;;;;;;4979403;28;20626;-90
2022/09/12 09:38:23;;;;;;;3.55;1.60;;;17.80;99.90;;;;;;4979252;28;20057;-89
2022/09/12 09:41:18;;;;;;;2.53;1.20;;;17.80;99.90;;;;;;4978317;28;20045;-90
2022/09/12 09:43:44;;;;;;;2.38;1.17;;;17.90;99.90;;;;;;4979226;28;20054;-90
2022/09/12 09:46:10;;;;;;;3.13;1.65;;;17.90;99.90;;;;;;5012507;28;20385;-91
2022/09/12 09:48:47;;;;;;;3.85;1.27;;;18.10;99.90;;;;;;4994568;28;20054;-90
2022/09/12 09:51:18;;;;;;;4.47;1.40;;;18.30;99.90;;;;;;4995413;28;20050;-90
2022/09/12 09:54:07;;;;;;;1.20;1.00;;;18.40;99.90;;;;;;4994800;28;20060;-90
2022/09/12 09:56:36;;;;;;;3.13;1.27;;;18.50;99.90;;;;;;4997905;28;20099;-89
2022/09/12 09:59:14;;;;;;;3.03;1.52;;;18.60;99.90;;;;;;4982454;28;20132;-89
2022/09/12 10:01:56;;;;;;;6.55;1.38;;;18.60;99.90;;;;;;4998332;28;20059;-90
2022/09/12 10:04:31;;;;;;;3.13;1.30;;;18.80;99.90;;;;;;4998576;28;20046;-90
2022/09/12 10:06:59;;;;;;;3.75;1.85;;;19.00;99.90;;;;;;5015830;28;20049;-90
2022/09/12 10:09:34;;;;;;;3.85;1.90;;;19.20;99.90;;;;;;4982152;28;20068;-90
2022/09/12 10:12:20;;;;;;;2.00;1.20;;;19.50;99.90;;;;;;4982300;28;20068;-91
2022/09/12 10:15:01;;;;;;;2.60;1.45;;;19.70;99.90;;;;;;5015422;28;20057;-91
2022/09/12 10:17:44;;;;;;;2.10;1.27;;;19.80;99.90;;;;;;4982286;28;20111;-91
2022/09/12 10:20:39;;;;;;;3.38;2.08;;;19.90;99.90;;;;;;4998327;28;20049;-91
2022/09/12 10:23:29;;;;;;;3.33;2.30;;;19.80;99.90;;;;;;4982130;28;20373;-90
2022/09/12 10:25:59;;;;;;;3.00;1.55;;;19.70;99.90;;;;;;4981843;28;20050;-91
2022/09/12 10:28:38;;;;;;;2.45;1.33;;;19.80;99.90;;;;;;4998206;28;20049;-91
2022/09/12 10:31:04;;;;;;;2.70;1.30;;;20.00;99.90;;;;;;4998038;28;20120;-91
2022/09/12 10:33:36;;;;;;;2.58;1.30;;;20.10;99.90;;;;;;4981753;28;20046;-91
2022/09/12 10:36:02;;;;;;;2.72;1.55;;;20.30;99.90;;;;;;4982794;28;20512;-92
2022/09/12 10:38:33;;;;;;;3.03;1.40;;;20.50;99.90;;;;;;4981558;28;20046;-91
2022/09/12 10:41:08;;;;;;;1.75;1.20;;;20.60;99.90;;;;;;5015276;28;20077;-91
2022/09/12 10:43:41;;;;;;;2.58;1.63;;;20.70;99.90;;;;;;4997934;28;20488;-91
2022/09/12 10:46:27;;;;;;;2.85;1.42;;;20.80;99.90;;;;;;4998146;28;20445;-91
2022/09/12 10:49:18;;;;;;;3.30;1.27;;;21.00;99.90;;;;;;5007345;28;20072;-91
2022/09/12 10:51:53;;;;;;;2.10;1.02;;;21.10;99.90;;;;;;4985441;28;20052;-91
2022/09/12 10:54:22;;;;;;;2.05;1.38;;;21.20;99.90;;;;;;4976393;28;20050;-92
2022/09/12 10:56:57;;;;;;;1.77;1.63;;;21.30;99.90;;;;;;4983876;28;20452;-93
2022/09/12 10:59:53;;;;;;;3.45;2.47;;;21.40;99.90;;;;;;4981786;28;20534;-91
2022/09/12 11:02:47;;;;;;;2.05;1.27;;;21.60;99.90;;;;;;4981472;28;20069;-92
2022/09/12 11:05:39;;;;;;;2.78;1.40;;;21.70;99.90;;;;;;4981421;28;20053;-91
2022/09/12 11:08:21;;;;;;;3.63;0.85;;;21.60;99.90;;;;;;4980919;28;20058;-91
2022/09/12 11:10:55;;;;;;;1.33;0.85;;;21.60;99.90;;;;;;4996954;28;20052;-91
2022/09/12 11:13:52;;;;;;;2.00;1.23;;;21.80;99.90;;;;;;4981210;28;20396;-92
2022/09/12 11:16:21;;;;;;;2.35;1.58;;;21.90;99.90;;;;;;4954019;28;20125;-92
2022/09/12 11:18:58;;;;;;;3.30;1.33;;;22.00;99.90;;;;;;4985802;28;20077;-91
2022/09/12 11:21:31;;;;;;;1.73;1.30;;;22.00;99.90;;;;;;4983094;28;20042;-92
2022/09/12 11:24:03;;;;;;;3.28;1.58;;;22.00;99.90;;;;;;4980724;28;20053;-93
2022/09/12 11:26:57;;;;;;;1.00;1.00;;;22.10;99.90;;;;;;4997165;28;20053;-92
2022/09/12 11:29:37;;;;;;;2.97;1.35;;;22.20;99.90;;;;;;4977990;28;20050;-92
2022/09/12 11:32:12;;;;;;;1.40;1.10;;;22.30;99.90;;;;;;4996800;28;20197;-92
2022/09/12 11:34:54;;;;;;;1.70;1.10;;;22.40;99.90;;;;;;4980980;28;20072;-92
2022/09/12 11:37:57;;;;;;;0.88;0.88;;;22.60;99.90;;;;;;4980934;28;20081;-92
2022/09/12 11:40:36;;;;;;;1.55;1.00;;;22.70;99.90;;;;;;4997136;28;20050;-93
2022/09/12 11:43:21;;;;;;;0.98;0.70;;;22.80;99.90;;;;;;4980061;28;20061;-93
2022/09/12 11:45:47;;;;;;;1.15;1.00;;;22.90;99.90;;;;;;4980371;28;20144;-93
2022/09/12 11:48:27;;;;;;;;;;;22.80;99.90;;;;;;4997431;28;20046;-92
2022/09/12 11:50:53;;;;;;;1.23;0.60;;;22.80;99.90;;;;;;4996267;28;19976;-92
2022/09/12 11:53:28;;;;;;;1.52;1.15;;;22.90;99.90;;;;;;4964610;28;20061;-92
2022/09/12 11:56:18;;;;;;;0.60;0.50;;;22.90;99.90;;;;;;4980234;28;20057;-92
2022/09/12 11:59:10;;;;;;;0.85;0.80;;;23.00;99.90;;;;;;4980665;28;20096;-92
2022/09/12 12:01:43;;;;;;;1.70;1.05;;;23.60;99.90;;;;;;4980203;28;20148;-92
2022/09/12 12:04:12;;;;;;;1.75;0.88;;;23.10;99.90;;;;;;4996114;28;20085;-92
2022/09/12 12:06:51;;;;;;;4.15;1.13;;;23.10;99.90;;;;;;4980264;28;20080;-93
2022/09/12 12:09:17;;;;;;;0.80;0.80;;;23.20;99.90;;;;;;4980546;28;20046;-93
2022/09/12 12:11:49;;;;;;;1.08;0.85;;;23.30;99.90;;;;;;4980438;28;20053;-93
2022/09/12 12:14:23;;;;;;;0.77;0.77;;;23.40;99.90;;;;;;5014058;28;20042;-92
2022/09/12 12:16:49;;;;;;;2.38;1.38;;;23.50;99.90;;;;;;4996526;28;20037;-92
2022/09/12 12:19:15;;;;;;;0.85;0.80;;;23.60;99.90;;;;;;4995974;28;20049;-92
2022/09/12 12:21:51;;;;;;;1.05;0.95;;;23.80;99.90;;;;;;4996244;28;20442;-93
2022/09/12 12:24:23;;;;;;;0.88;0.57;;;23.80;99.90;;;;;;4995978;28;20193;-92
2022/09/12 12:26:51;;;;;;;2.90;1.10;;;24.70;99.90;;;;;;5013588;28;20057;-93
2022/09/12 12:29:16;;;;;;;1.50;1.40;;;23.90;99.90;;;;;;4980000;28;20068;-93
2022/09/12 12:32:03;;;;;;;1.30;0.82;;;24.10;99.90;;;;;;4979580;28;20492;-93
2022/09/12 12:34:32;;;;;;;1.58;1.48;;;24.10;99.90;;;;;;4996258;28;20180;-92
2022/09/12 12:37:18;;;;;;;1.65;0.80;;;24.10;99.90;;;;;;4979364;28;20050;-93
2022/09/12 12:39:59;;;;;;;2.50;1.00;;;24.10;99.90;;;;;;4979640;28;20049;-92
2022/09/12 12:42:34;;;;;;;1.17;0.75;;;24.10;99.90;;;;;;4979697;28;20053;-93
2022/09/12 12:45:00;;;;;;;1.42;0.98;;;24.00;99.90;;;;;;4979344;28;20053;-92
2022/09/12 12:47:43;;;;;;;1.30;1.10;;;24.00;99.90;;;;;;4995795;28;20068;-92
2022/09/12 12:50:22;;;;;;;2.30;0.90;;;24.00;99.90;;;;;;4979156;28;20051;-93
2022/09/12 12:52:49;;;;;;;1.25;0.93;;;24.30;99.90;;;;;;4980783;28;20140;-93
2022/09/12 12:55:25;;;;;;;1.17;1.08;;;24.30;99.90;;;;;;4996829;28;20496;-94
2022/09/12 12:57:56;;;;;;;0.75;0.73;;;24.30;99.90;;;;;;4980756;28;20476;-92
2022/09/12 13:00:28;;;;;;;0.55;0.55;;;24.30;99.90;;;;;;4995671;28;20049;-92
2022/09/12 13:03:04;;;;;;;0.77;0.60;;;24.30;99.90;;;;;;4979632;28;20061;-92
2022/09/12 13:05:41;;;;;;;1.00;0.90;;;24.30;99.90;;;;;;4996619;28;20053;-92
2022/09/12 13:08:09;;;;;;;;;;;24.30;99.90;;;;;;4981284;28;20771;-92
2022/09/12 13:10:35;;;;;;;0.43;0.40;;;24.40;99.90;;;;;;4979360;28;19922;-93
2022/09/12 13:13:04;;;;;;;1.55;0.90;;;24.50;99.90;;;;;;4995310;28;20037;-92
2022/09/12 13:15:35;;;;;;;0.98;0.60;;;24.60;99.90;;;;;;4979301;28;20578;-92